Time;durP1;ratioP1;P1;durP2;ratioP2;P2;SDS_P1;SDS_P2;PMS_P1;PMS_P2;Temp;Humidity;BMP_temperature;BMP_pressure;BME280_temperature;BME280_humidity;BME280_pressure;Samples;Min_cycle;Max_cycle;Signal;HPM_P1;HPM_P2
2023/10/20 00:00:52;;;;;;;5.35;4.95;;;;;;;;;;5077580;28;20300;-62
2023/10/20 00:03:19;;;;;;;4.97;4.57;;;;;;;;;;5075408;28;20202;-61
2023/10/20 00:05:46;;;;;;;5.95;5.38;;;;;;;;;;5076645;28;20219;-61
2023/10/20 00:08:14;;;;;;;6.03;4.82;;;;;;;;;;5076684;28;20210;-60
2023/10/20 00:10:41;;;;;;;4.88;4.47;;;;;;;;;;5077048;28;20230;-61
2023/10/20 00:13:09;;;;;;;4.82;4.47;;;;;;;;;;5077066;28;20199;-61
2023/10/20 00:18:21;;;;;;;4.85;4.45;;;;;;;;;;5084837;28;20335;-61
2023/10/20 00:20:48;;;;;;;5.18;4.78;;;;;;;;;;5084978;28;20203;-61
2023/10/20 00:23:15;;;;;;;5.07;4.65;;;;;;;;;;5085957;28;20647;-61
2023/10/20 00:25:42;;;;;;;6.05;4.28;;;;;;;;;;5085967;28;20952;-62
2023/10/20 00:28:11;;;;;;;5.20;4.80;;;;;;;;;;5086673;28;20631;-61
2023/10/20 00:30:39;;;;;;;5.32;4.82;;;;;;;;;;5084898;28;20202;-61
2023/10/20 00:33:06;;;;;;;4.85;4.55;;;;;;;;;;5085193;28;20206;-62
2023/10/20 00:35:33;;;;;;;4.78;4.47;;;;;;;;;;5086261;28;20313;-61
2023/10/20 00:38:01;;;;;;;6.07;4.90;;;;;;;;;;5085723;28;20692;-61
2023/10/20 00:40:28;;;;;;;5.43;4.93;;;;;;;;;;5085141;28;20857;-62
2023/10/20 00:42:55;;;;;;;5.90;5.30;;;;;;;;;;5074621;28;20228;-61
2023/10/20 00:45:23;;;;;;;4.80;4.50;;;;;;;;;;5085919;28;20225;-61
2023/10/20 00:47:50;;;;;;;5.07;4.60;;;;;;;;;;5084949;28;20581;-61
2023/10/20 00:50:18;;;;;;;6.90;4.57;;;;;;;;;;5082598;28;20213;-61
2023/10/20 00:52:45;;;;;;;4.88;4.45;;;;;;;;;;5084844;28;20581;-61
2023/10/20 00:55:14;;;;;;;5.20;4.82;;;;;;;;;;5084535;28;20222;-62
2023/10/20 00:57:42;;;;;;;8.70;4.65;;;;;;;;;;5084590;28;20214;-61
2023/10/20 01:00:09;;;;;;;9.10;4.90;;;;;;;;;;5084824;28;20217;-61
2023/10/20 01:02:38;;;;;;;8.90;4.22;;;;;;;;;;5083595;28;20711;-61
2023/10/20 01:05:06;;;;;;;5.50;4.53;;;;;;;;;;5083949;28;20263;-62
2023/10/20 01:07:33;;;;;;;5.90;4.60;;;;;;;;;;5083036;28;20206;-61
2023/10/20 01:10:00;;;;;;;5.10;4.63;;;;;;;;;;5084492;28;20610;-62
2023/10/20 01:12:27;;;;;;;5.05;4.68;;;;;;;;;;5084389;28;20205;-61
2023/10/20 01:14:54;;;;;;;5.60;3.95;;;;;;;;;;5084461;28;20246;-62
2023/10/20 01:17:21;;;;;;;4.80;4.43;;;;;;;;;;5079925;28;20202;-61
2023/10/20 01:19:50;;;;;;;4.90;4.60;;;;;;;;;;5083032;28;20210;-62
2023/10/20 01:22:17;;;;;;;10.40;4.70;;;;;;;;;;5084759;28;20194;-61
2023/10/20 01:24:45;;;;;;;5.43;4.90;;;;;;;;;;5083897;28;20300;-61
2023/10/20 01:27:12;;;;;;;5.57;4.68;;;;;;;;;;5084697;28;20984;-61
2023/10/20 01:29:39;;;;;;;6.32;4.70;;;;;;;;;;5084940;28;20213;-61
2023/10/20 01:32:06;;;;;;;5.50;4.93;;;;;;;;;;5084858;28;20213;-61
2023/10/20 01:34:33;;;;;;;5.50;4.97;;;;;;;;;;5083766;28;20772;-62
2023/10/20 01:37:02;;;;;;;5.63;4.95;;;;;;;;;;5085184;28;20206;-62
2023/10/20 01:39:30;;;;;;;8.25;4.25;;;;;;;;;;5084611;28;20969;-62
2023/10/20 01:41:58;;;;;;;4.88;4.40;;;;;;;;;;5084377;28;20308;-61
2023/10/20 01:44:25;;;;;;;5.35;4.88;;;;;;;;;;5084457;28;20251;-62
2023/10/20 01:46:52;;;;;;;4.90;4.53;;;;;;;;;;5084642;28;20678;-61
2023/10/20 01:49:19;;;;;;;6.63;4.20;;;;;;;;;;5084346;28;20210;-61
2023/10/20 01:51:46;;;;;;;5.07;4.38;;;;;;;;;;5084887;28;20258;-62
2023/10/20 01:54:13;;;;;;;4.38;4.07;;;;;;;;;;5072057;28;20301;-61
2023/10/20 01:56:40;;;;;;;4.18;3.92;;;;;;;;;;5081268;28;20767;-61
2023/10/20 01:59:09;;;;;;;4.53;4.05;;;;;;;;;;5085156;28;20221;-61
2023/10/20 02:01:36;;;;;;;4.28;3.90;;;;;;;;;;5085050;28;20283;-61
2023/10/20 02:04:03;;;;;;;4.38;4.07;;;;;;;;;;5086174;28;20202;-61
2023/10/20 02:06:30;;;;;;;4.72;4.03;;;;;;;;;;5088196;28;20613;-62
2023/10/20 02:08:58;;;;;;;4.07;3.88;;;;;;;;;;5088920;28;20214;-62
2023/10/20 02:11:25;;;;;;;4.32;4.00;;;;;;;;;;5087574;28;20214;-62
2023/10/20 02:13:53;;;;;;;3.70;3.40;;;;;;;;;;5087975;28;20237;-62
2023/10/20 02:16:21;;;;;;;4.00;3.75;;;;;;;;;;5087432;28;20240;-63
2023/10/20 02:18:48;;;;;;;3.70;3.55;;;;;;;;;;5088175;28;20202;-62
2023/10/20 02:21:15;;;;;;;3.65;3.35;;;;;;;;;;5088070;28;20203;-62
2023/10/20 02:23:42;;;;;;;3.95;3.65;;;;;;;;;;5087971;28;20680;-62
2023/10/20 02:26:11;;;;;;;4.03;3.63;;;;;;;;;;5087756;28;20202;-62
2023/10/20 02:28:38;;;;;;;3.78;3.47;;;;;;;;;;5088188;28;20593;-62
2023/10/20 02:31:12;;;;;;;3.90;3.60;;;;;;;;;;5086455;28;20210;-62
2023/10/20 02:33:40;;;;;;;4.63;3.42;;;;;;;;;;5083596;28;20206;-62
2023/10/20 02:36:07;;;;;;;3.65;3.45;;;;;;;;;;5087292;28;20321;-62
2023/10/20 02:38:34;;;;;;;5.00;3.83;;;;;;;;;;5086917;28;20210;-62
2023/10/20 02:41:03;;;;;;;4.00;3.53;;;;;;;;;;5087813;28;20245;-61
2023/10/20 02:43:31;;;;;;;6.32;3.97;;;;;;;;;;5087242;28;20669;-62
2023/10/20 02:45:58;;;;;;;3.80;3.53;;;;;;;;;;5086665;28;20283;-61
2023/10/20 02:48:26;;;;;;;3.33;3.05;;;;;;;;;;5087468;28;20202;-60
2023/10/20 02:50:54;;;;;;;4.10;3.80;;;;;;;;;;5074136;28;20213;-60
2023/10/20 02:53:21;;;;;;;5.35;3.75;;;;;;;;;;5086840;28;20207;-60
2023/10/20 02:55:48;;;;;;;4.40;3.70;;;;;;;;;;5087180;28;20233;-60
2023/10/20 02:58:16;;;;;;;4.53;4.13;;;;;;;;;;5087137;28;20209;-60
2023/10/20 03:00:43;;;;;;;4.68;4.28;;;;;;;;;;5083993;28;20752;-60
2023/10/20 03:03:11;;;;;;;4.82;4.50;;;;;;;;;;5087415;28;20663;-60
2023/10/20 03:05:38;;;;;;;4.82;4.43;;;;;;;;;;5087145;28;20691;-60
2023/10/20 03:08:08;;;;;;;4.95;4.55;;;;;;;;;;5086669;28;20543;-60
2023/10/20 03:10:36;;;;;;;4.93;4.53;;;;;;;;;;5085991;28;20276;-60
2023/10/20 03:13:04;;;;;;;4.70;4.20;;;;;;;;;;5087656;28;20761;-60
2023/10/20 03:15:31;;;;;;;6.45;4.63;;;;;;;;;;5086434;28;20316;-60
2023/10/20 03:17:58;;;;;;;6.50;5.00;;;;;;;;;;5087302;28;21005;-59
2023/10/20 03:20:28;;;;;;;8.52;5.43;;;;;;;;;;5087948;28;20206;-62
2023/10/20 03:22:55;;;;;;;6.85;4.93;;;;;;;;;;5087237;28;20202;-62
2023/10/20 03:25:23;;;;;;;9.70;5.75;;;;;;;;;;5086646;28;20586;-62
2023/10/20 03:27:51;;;;;;;6.70;5.47;;;;;;;;;;5087727;28;20210;-62
2023/10/20 03:30:18;;;;;;;10.13;5.95;;;;;;;;;;5087908;28;20244;-62
2023/10/20 03:32:48;;;;;;;8.23;6.43;;;;;;;;;;5086834;28;20570;-60
2023/10/20 03:35:16;;;;;;;6.78;5.30;;;;;;;;;;5086037;28;20226;-60
2023/10/20 03:37:43;;;;;;;6.43;5.75;;;;;;;;;;5087560;28;20213;-60
2023/10/20 03:40:13;;;;;;;8.63;6.07;;;;;;;;;;5086962;28;20237;-62
2023/10/20 03:42:43;;;;;;;10.20;7.05;;;;;;;;;;5086809;28;20210;-62
2023/10/20 03:45:10;;;;;;;8.57;6.35;;;;;;;;;;5086779;28;20228;-62
2023/10/20 03:47:39;;;;;;;7.60;6.68;;;;;;;;;;5078316;28;20207;-62
2023/10/20 03:50:14;;;;;;;11.27;6.68;;;;;;;;;;5086690;28;20317;-62
2023/10/20 03:52:42;;;;;;;12.65;6.78;;;;;;;;;;5086662;28;20209;-62
2023/10/20 03:55:08;;;;;;;8.85;6.55;;;;;;;;;;5086439;28;20307;-60
2023/10/20 03:57:35;;;;;;;9.80;6.68;;;;;;;;;;5086317;28;20198;-60
2023/10/20 04:00:17;;;;;;;9.73;6.20;;;;;;;;;;5086478;28;20658;-60
2023/10/20 04:02:45;;;;;;;10.27;6.88;;;;;;;;;;5084369;28;20274;-60
2023/10/20 04:05:14;;;;;;;11.48;6.85;;;;;;;;;;5086911;28;20229;-60
2023/10/20 04:07:42;;;;;;;8.52;7.47;;;;;;;;;;5086574;28;20692;-60
2023/10/20 04:10:09;;;;;;;16.42;7.35;;;;;;;;;;5086065;28;20218;-61
2023/10/20 04:12:39;;;;;;;9.15;7.32;;;;;;;;;;5085716;28;20218;-60
2023/10/20 04:15:09;;;;;;;8.95;6.88;;;;;;;;;;5072580;28;20330;-60
2023/10/20 04:17:38;;;;;;;8.63;6.10;;;;;;;;;;5083237;28;20198;-60
2023/10/20 04:20:06;;;;;;;11.73;7.30;;;;;;;;;;5085916;28;20234;-60
2023/10/20 04:22:33;;;;;;;7.85;6.95;;;;;;;;;;5085599;28;20757;-61
2023/10/20 04:25:01;;;;;;;9.45;6.80;;;;;;;;;;5085426;28;20225;-60
2023/10/20 04:27:44;;;;;;;8.05;6.88;;;;;;;;;;5084930;28;20202;-60
2023/10/20 04:47:33;;;;;;;7.03;6.18;;;;;;;;;;5081925;28;20205;-67
2023/10/20 04:58:34;;;;;;;9.60;6.97;;;;;;;;;;5078708;28;20260;-60
2023/10/20 05:01:07;;;;;;;6.85;6.15;;;;;;;;;;5080025;28;20240;-60
2023/10/20 05:03:45;;;;;;;6.95;6.35;;;;;;;;;;5077214;28;20207;-62
2023/10/20 05:06:25;;;;;;;7.50;6.63;;;;;;;;;;5085122;28;20389;-61
2023/10/20 05:08:52;;;;;;;6.75;6.10;;;;;;;;;;5086087;28;20213;-61
2023/10/20 05:11:19;;;;;;;6.75;6.00;;;;;;;;;;5084256;28;20800;-61
2023/10/20 05:13:47;;;;;;;9.05;5.72;;;;;;;;;;5085193;28;20249;-61
2023/10/20 05:16:14;;;;;;;6.22;5.63;;;;;;;;;;5085494;28;20712;-62
2023/10/20 05:18:44;;;;;;;5.93;5.38;;;;;;;;;;5085601;28;20210;-62
2023/10/20 05:21:12;;;;;;;6.20;5.60;;;;;;;;;;5085412;28;20670;-61
2023/10/20 05:23:39;;;;;;;8.60;6.13;;;;;;;;;;5081642;28;20213;-61
2023/10/20 05:26:06;;;;;;;8.23;5.88;;;;;;;;;;5084851;28;20206;-61
2023/10/20 05:28:33;;;;;;;5.60;5.10;;;;;;;;;;5085291;28;20199;-62
2023/10/20 05:31:01;;;;;;;6.40;5.70;;;;;;;;;;5085025;28;20202;-61
2023/10/20 05:33:28;;;;;;;6.43;5.80;;;;;;;;;;5076622;28;20206;-62
2023/10/20 05:36:01;;;;;;;7.32;6.13;;;;;;;;;;5079641;28;20238;-62
2023/10/20 05:38:28;;;;;;;6.65;6.05;;;;;;;;;;5088458;28;20285;-61
2023/10/20 05:40:59;;;;;;;7.65;6.00;;;;;;;;;;5090081;28;20216;-62
2023/10/20 05:43:26;;;;;;;6.90;6.20;;;;;;;;;;5089945;28;20626;-61
2023/10/20 05:45:53;;;;;;;6.43;5.85;;;;;;;;;;5089330;28;20213;-62
2023/10/20 05:48:20;;;;;;;7.30;6.65;;;;;;;;;;5089310;28;20214;-62
2023/10/20 05:50:49;;;;;;;7.63;6.70;;;;;;;;;;5088210;28;20274;-62
2023/10/20 05:53:17;;;;;;;9.93;6.95;;;;;;;;;;5089278;28;20306;-62
2023/10/20 05:55:44;;;;;;;13.90;7.07;;;;;;;;;;5087282;28;20226;-62
2023/10/20 05:58:11;;;;;;;12.93;7.55;;;;;;;;;;5088457;28;20214;-62
2023/10/20 06:00:38;;;;;;;9.93;7.15;;;;;;;;;;5068341;28;20207;-62
2023/10/20 06:03:07;;;;;;;7.93;7.05;;;;;;;;;;5069024;28;20213;-62
2023/10/20 06:05:34;;;;;;;6.97;6.30;;;;;;;;;;5078199;28;20226;-62
2023/10/20 06:08:02;;;;;;;10.65;8.15;;;;;;;;;;5088517;28;20222;-62
2023/10/20 06:10:31;;;;;;;9.00;8.10;;;;;;;;;;5088566;28;20206;-62
2023/10/20 06:12:58;;;;;;;10.35;7.68;;;;;;;;;;5089246;28;20210;-62
2023/10/20 06:15:25;;;;;;;10.55;7.88;;;;;;;;;;5088288;28;20608;-62
2023/10/20 06:17:53;;;;;;;8.80;7.45;;;;;;;;;;5088523;28;20233;-62
2023/10/20 06:20:20;;;;;;;10.30;8.07;;;;;;;;;;5088527;28;20214;-61
2023/10/20 06:22:47;;;;;;;8.35;7.55;;;;;;;;;;5088417;28;20210;-63
2023/10/20 06:25:16;;;;;;;10.25;7.95;;;;;;;;;;5088234;28;20335;-66
2023/10/20 06:27:45;;;;;;;8.80;7.80;;;;;;;;;;5085797;28;20646;-63
2023/10/20 06:30:19;;;;;;;9.10;8.20;;;;;;;;;;5070521;28;20203;-61
2023/10/20 06:32:54;;;;;;;9.13;8.20;;;;;;;;;;5076496;28;20194;-62
2023/10/20 06:35:24;;;;;;;12.35;8.20;;;;;;;;;;5088579;28;20210;-62
2023/10/20 06:37:57;;;;;;;11.85;8.95;;;;;;;;;;5082193;28;20199;-62
2023/10/20 06:40:24;;;;;;;9.33;7.17;;;;;;;;;;5083802;28;20210;-63
2023/10/20 06:42:53;;;;;;;12.13;9.23;;;;;;;;;;5069904;28;20199;-62
2023/10/20 06:45:20;;;;;;;10.43;9.15;;;;;;;;;;5087360;28;20297;-61
2023/10/20 06:47:48;;;;;;;10.73;8.40;;;;;;;;;;5081815;28;20202;-62
2023/10/20 06:50:16;;;;;;;11.93;8.65;;;;;;;;;;5085752;28;20584;-62
2023/10/20 06:52:43;;;;;;;8.43;7.22;;;;;;;;;;5085373;28;20217;-62
2023/10/20 06:55:13;;;;;;;14.07;9.83;;;;;;;;;;5087239;28;20670;-62
2023/10/20 06:57:41;;;;;;;14.35;9.63;;;;;;;;;;5086840;28;20230;-61
2023/10/20 07:00:17;;;;;;;10.20;8.98;;;;;;;;;;5086622;28;20233;-62
2023/10/20 07:02:50;;;;;;;11.50;9.07;;;;;;;;;;5086505;28;20225;-62
2023/10/20 07:05:18;;;;;;;12.43;9.90;;;;;;;;;;5075573;28;20326;-62
2023/10/20 07:07:45;;;;;;;14.15;10.38;;;;;;;;;;5086627;28;20339;-62
2023/10/20 07:10:12;;;;;;;13.43;10.33;;;;;;;;;;5086470;28;20208;-62
2023/10/20 07:12:39;;;;;;;15.50;10.60;;;;;;;;;;5069851;28;20314;-62
2023/10/20 07:15:07;;;;;;;13.23;10.50;;;;;;;;;;5086386;28;20239;-62
2023/10/20 07:17:35;;;;;;;14.80;11.23;;;;;;;;;;5086828;28;20253;-62
2023/10/20 07:20:05;;;;;;;16.20;11.02;;;;;;;;;;5086962;28;20221;-61
2023/10/20 07:22:32;;;;;;;15.32;10.68;;;;;;;;;;5086285;28;20198;-63
2023/10/20 07:24:59;;;;;;;15.77;10.27;;;;;;;;;;5086539;28;20214;-62
2023/10/20 07:27:26;;;;;;;14.60;10.35;;;;;;;;;;5086125;28;20924;-61
2023/10/20 07:29:53;;;;;;;13.02;10.73;;;;;;;;;;5080019;28;20199;-61
2023/10/20 07:32:21;;;;;;;13.70;10.57;;;;;;;;;;5066433;28;20214;-62
2023/10/20 07:34:49;;;;;;;12.43;10.63;;;;;;;;;;5080722;28;20211;-62
2023/10/20 07:37:16;;;;;;;13.30;9.45;;;;;;;;;;5082645;28;20229;-62
2023/10/20 07:39:47;;;;;;;10.75;9.38;;;;;;;;;;5086055;28;20209;-62
2023/10/20 07:42:18;;;;;;;12.57;10.00;;;;;;;;;;5086294;28;20209;-62
2023/10/20 07:44:45;;;;;;;13.45;9.98;;;;;;;;;;5084947;28;20209;-62
2023/10/20 07:47:12;;;;;;;12.85;10.13;;;;;;;;;;5068281;28;20215;-62
2023/10/20 07:49:39;;;;;;;11.63;10.00;;;;;;;;;;5069970;28;20741;-62
2023/10/20 07:52:08;;;;;;;15.65;10.10;;;;;;;;;;5081140;28;20206;-62
2023/10/20 07:54:35;;;;;;;11.77;9.25;;;;;;;;;;5076305;28;20293;-62
2023/10/20 07:57:03;;;;;;;14.68;10.45;;;;;;;;;;5073671;28;20947;-62
2023/10/20 07:59:30;;;;;;;12.85;9.35;;;;;;;;;;5074130;28;20706;-62
2023/10/20 08:01:57;;;;;;;14.40;10.52;;;;;;;;;;5075586;28;20210;-60
2023/10/20 08:04:26;;;;;;;16.88;10.93;;;;;;;;;;5076216;28;20210;-62
2023/10/20 08:06:54;;;;;;;16.05;10.43;;;;;;;;;;5076558;28;20237;-61
2023/10/20 08:09:23;;;;;;;19.47;11.87;;;;;;;;;;5074878;28;20979;-62
2023/10/20 08:11:50;;;;;;;17.02;12.40;;;;;;;;;;5073714;28;20210;-61
2023/10/20 08:14:17;;;;;;;14.90;10.97;;;;;;;;;;5074052;28;20717;-61
2023/10/20 08:16:44;;;;;;;14.40;10.60;;;;;;;;;;5085715;28;20226;-62
2023/10/20 08:19:11;;;;;;;13.35;10.38;;;;;;;;;;5085278;28;20217;-62
2023/10/20 08:21:38;;;;;;;15.90;10.77;;;;;;;;;;5085149;28;20206;-62
2023/10/20 08:24:06;;;;;;;14.25;10.45;;;;;;;;;;5073050;28;20534;-62
2023/10/20 08:26:35;;;;;;;13.65;9.93;;;;;;;;;;5079562;28;20584;-62
2023/10/20 08:29:05;;;;;;;13.80;10.55;;;;;;;;;;5085158;28;20232;-62
2023/10/20 08:31:32;;;;;;;20.77;11.85;;;;;;;;;;5085549;28;20358;-62
2023/10/20 08:34:00;;;;;;;14.13;10.13;;;;;;;;;;5085235;28;20574;-60
2023/10/20 08:36:27;;;;;;;12.40;9.63;;;;;;;;;;5084725;28;20340;-61
2023/10/20 08:38:54;;;;;;;15.33;10.20;;;;;;;;;;5085260;28;20213;-65
2023/10/20 08:41:22;;;;;;;12.18;9.13;;;;;;;;;;5084722;28;20206;-60
2023/10/20 08:43:51;;;;;;;12.40;9.83;;;;;;;;;;5070890;28;20361;-63
2023/10/20 08:46:18;;;;;;;11.50;10.30;;;;;;;;;;5076741;28;20194;-62
2023/10/20 08:48:46;;;;;;;14.02;9.98;;;;;;;;;;5085165;28;20207;-61
2023/10/20 08:51:15;;;;;;;11.40;9.38;;;;;;;;;;5083586;28;20214;-61
2023/10/20 08:53:42;;;;;;;14.75;9.70;;;;;;;;;;5084714;28;20275;-61
2023/10/20 08:56:10;;;;;;;14.15;10.07;;;;;;;;;;5084982;28;20230;-61
2023/10/20 08:58:37;;;;;;;13.93;10.45;;;;;;;;;;5072468;28;20234;-62
2023/10/20 09:01:06;;;;;;;13.30;9.98;;;;;;;;;;5068880;28;20198;-61
2023/10/20 09:03:40;;;;;;;12.45;10.25;;;;;;;;;;5075408;28;20241;-62
2023/10/20 09:06:08;;;;;;;11.70;9.32;;;;;;;;;;5080602;28;20273;-61
2023/10/20 09:08:35;;;;;;;10.05;8.75;;;;;;;;;;5084340;28;20202;-62
2023/10/20 09:11:02;;;;;;;11.00;9.45;;;;;;;;;;5082548;28;20701;-61
2023/10/20 09:13:34;;;;;;;11.48;9.55;;;;;;;;;;5083928;28;20249;-66
2023/10/20 09:16:02;;;;;;;12.45;8.93;;;;;;;;;;5077194;28;20199;-62
2023/10/20 09:18:31;;;;;;;15.85;9.57;;;;;;;;;;5083387;28;20230;-61
2023/10/20 09:21:04;;;;;;;11.88;9.57;;;;;;;;;;5083407;28;20742;-62
2023/10/20 09:23:32;;;;;;;11.35;9.32;;;;;;;;;;5080976;28;20263;-62
2023/10/20 09:25:59;;;;;;;11.82;9.07;;;;;;;;;;5082727;28;20207;-62
2023/10/20 09:28:26;;;;;;;13.13;9.25;;;;;;;;;;5083717;28;20237;-61
2023/10/20 09:30:54;;;;;;;13.77;10.13;;;;;;;;;;5083284;28;20217;-61
2023/10/20 09:33:23;;;;;;;14.45;9.77;;;;;;;;;;5083929;28;20213;-61
2023/10/20 09:35:52;;;;;;;10.55;9.15;;;;;;;;;;5084064;28;20692;-61
2023/10/20 09:38:21;;;;;;;10.45;8.30;;;;;;;;;;5083617;28;20225;-62
2023/10/20 09:40:51;;;;;;;11.05;9.13;;;;;;;;;;5082235;28;20341;-62
2023/10/20 09:43:22;;;;;;;11.45;8.75;;;;;;;;;;5083487;28;20217;-62
2023/10/20 09:45:52;;;;;;;10.65;8.65;;;;;;;;;;5083301;28;20220;-63
2023/10/20 09:48:20;;;;;;;12.02;8.40;;;;;;;;;;5083629;28;20206;-62
2023/10/20 09:50:48;;;;;;;9.45;8.55;;;;;;;;;;5083932;28;20205;-62
2023/10/20 09:53:17;;;;;;;10.57;8.07;;;;;;;;;;5083333;28;20237;-62
2023/10/20 09:55:45;;;;;;;9.18;7.55;;;;;;;;;;5083114;28;20214;-62
2023/10/20 09:58:13;;;;;;;9.00;8.10;;;;;;;;;;5083766;28;20226;-62
2023/10/20 10:00:43;;;;;;;10.15;8.90;;;;;;;;;;5083287;28;20222;-62
2023/10/20 10:03:12;;;;;;;16.80;8.10;;;;;;;;;;5082985;28;20210;-62
2023/10/20 10:05:39;;;;;;;10.70;8.30;;;;;;;;;;5083377;28;20265;-62
2023/10/20 10:08:07;;;;;;;9.55;8.63;;;;;;;;;;5082665;28;20221;-62
2023/10/20 10:10:36;;;;;;;11.05;8.57;;;;;;;;;;5081574;28;20315;-61
2023/10/20 10:13:05;;;;;;;13.63;7.97;;;;;;;;;;5082352;28;21000;-62
2023/10/20 10:15:36;;;;;;;11.82;8.35;;;;;;;;;;5063465;28;20815;-64
2023/10/20 10:18:07;;;;;;;10.77;8.65;;;;;;;;;;5063654;28;20254;-62
2023/10/20 10:20:41;;;;;;;9.13;8.30;;;;;;;;;;5073016;28;20210;-62
2023/10/20 10:23:10;;;;;;;10.10;8.02;;;;;;;;;;5077513;28;20213;-61
2023/10/20 10:25:40;;;;;;;8.88;7.90;;;;;;;;;;5086505;28;20206;-61
2023/10/20 10:28:11;;;;;;;8.98;8.00;;;;;;;;;;5071724;28;20211;-64
2023/10/20 10:30:40;;;;;;;14.68;8.38;;;;;;;;;;5076912;28;20516;-64
2023/10/20 10:33:08;;;;;;;14.38;8.02;;;;;;;;;;5081461;28;20210;-61
2023/10/20 10:35:38;;;;;;;11.82;8.55;;;;;;;;;;5081963;28;20238;-64
2023/10/20 10:38:19;;;;;;;9.25;8.35;;;;;;;;;;5080838;28;20673;-62
2023/10/20 10:40:48;;;;;;;9.90;8.70;;;;;;;;;;5081628;28;20345;-65
2023/10/20 10:43:16;;;;;;;10.10;8.35;;;;;;;;;;5081838;28;20206;-65
2023/10/20 10:45:44;;;;;;;9.80;7.78;;;;;;;;;;5081659;28;20252;-61
2023/10/20 10:48:12;;;;;;;9.23;7.72;;;;;;;;;;5080561;28;20305;-60
2023/10/20 10:50:40;;;;;;;8.07;7.30;;;;;;;;;;5083978;28;20206;-61
2023/10/20 10:53:07;;;;;;;22.55;7.15;;;;;;;;;;5082262;28;20207;-61
2023/10/20 10:55:35;;;;;;;11.20;7.93;;;;;;;;;;5083122;28;20230;-62
2023/10/20 10:58:04;;;;;;;19.80;7.90;;;;;;;;;;5082792;28;20246;-61
2023/10/20 11:00:31;;;;;;;12.18;7.85;;;;;;;;;;5077790;28;20210;-63
2023/10/20 11:02:59;;;;;;;8.38;7.38;;;;;;;;;;5079421;28;20211;-61
2023/10/20 11:05:26;;;;;;;10.30;6.40;;;;;;;;;;5082566;28;20724;-62
2023/10/20 11:08:01;;;;;;;8.80;6.57;;;;;;;;;;5085630;28;20299;-62
2023/10/20 11:10:28;;;;;;;14.20;6.18;;;;;;;;;;5085302;28;20232;-62
2023/10/20 11:12:56;;;;;;;8.65;7.80;;;;;;;;;;5086099;28;20202;-62
2023/10/20 11:15:26;;;;;;;8.15;7.43;;;;;;;;;;5085796;28;20237;-62
2023/10/20 11:17:53;;;;;;;10.85;6.53;;;;;;;;;;5075694;28;20231;-62
2023/10/20 11:20:21;;;;;;;9.40;6.38;;;;;;;;;;5072149;28;20366;-62
2023/10/20 11:22:53;;;;;;;8.02;6.53;;;;;;;;;;5076814;28;20206;-62
2023/10/20 11:25:20;;;;;;;7.57;6.60;;;;;;;;;;5080775;28;20496;-62
2023/10/20 11:27:53;;;;;;;10.20;7.10;;;;;;;;;;5080518;28;20935;-61
2023/10/20 11:30:25;;;;;;;9.77;7.43;;;;;;;;;;5079820;28;20198;-59
2023/10/20 11:32:53;;;;;;;7.07;6.38;;;;;;;;;;5082532;28;20263;-59
2023/10/20 11:35:21;;;;;;;15.82;9.77;;;;;;;;;;5081240;28;20293;-60
2023/10/20 11:37:48;;;;;;;166.25;75.47;;;;;;;;;;5081243;28;20218;-59
2023/10/20 11:40:16;;;;;;;220.45;104.03;;;;;;;;;;5080553;28;20313;-59
2023/10/20 11:42:43;;;;;;;64.22;32.17;;;;;;;;;;5081792;28;20237;-60
2023/10/20 11:45:11;;;;;;;174.55;75.00;;;;;;;;;;5080144;28;20207;-59
2023/10/20 11:47:40;;;;;;;271.38;116.05;;;;;;;;;;5080675;28;20198;-60
2023/10/20 11:50:09;;;;;;;93.35;41.05;;;;;;;;;;5076533;28;20562;-60
2023/10/20 11:52:36;;;;;;;50.92;24.17;;;;;;;;;;5081021;28;20209;-59
2023/10/20 11:55:03;;;;;;;14.70;9.35;;;;;;;;;;5081663;28;20237;-59
2023/10/20 11:57:31;;;;;;;94.45;41.83;;;;;;;;;;5079164;28;20222;-60
2023/10/20 11:59:58;;;;;;;8.27;7.45;;;;;;;;;;5078685;28;20289;-59
2023/10/20 12:02:25;;;;;;;17.33;11.30;;;;;;;;;;5068195;28;20210;-59
2023/10/20 12:04:53;;;;;;;173.57;72.57;;;;;;;;;;5076086;28;20210;-59
2023/10/20 12:07:20;;;;;;;168.45;70.03;;;;;;;;;;5080315;28;20198;-59
2023/10/20 12:09:47;;;;;;;145.27;61.28;;;;;;;;;;5078389;28;20210;-59
2023/10/20 12:12:14;;;;;;;39.25;20.45;;;;;;;;;;5082068;28;20206;-59
2023/10/20 12:14:41;;;;;;;9.13;6.88;;;;;;;;;;5077646;28;20600;-59
2023/10/20 12:17:08;;;;;;;12.40;8.43;;;;;;;;;;5080016;28;20205;-59
2023/10/20 12:19:35;;;;;;;133.43;56.72;;;;;;;;;;5080329;28;20238;-59
2023/10/20 12:22:04;;;;;;;9.45;7.28;;;;;;;;;;5080213;28;20198;-59
2023/10/20 12:24:31;;;;;;;124.88;53.00;;;;;;;;;;5078517;28;20317;-60
2023/10/20 12:26:59;;;;;;;59.00;26.60;;;;;;;;;;5081138;28;20321;-59
2023/10/20 12:29:26;;;;;;;39.50;18.60;;;;;;;;;;5078591;28;20206;-59
2023/10/20 12:31:53;;;;;;;6.95;5.35;;;;;;;;;;5079556;28;20211;-59
2023/10/20 12:34:20;;;;;;;74.47;33.85;;;;;;;;;;5070902;28;20206;-59
2023/10/20 12:36:48;;;;;;;67.13;29.42;;;;;;;;;;5078182;28;20663;-59
2023/10/20 12:39:18;;;;;;;33.05;17.80;;;;;;;;;;5076259;28;20698;-61
2023/10/20 12:41:45;;;;;;;3.63;3.33;;;;;;;;;;5077747;28;20210;-59
2023/10/20 12:44:13;;;;;;;26.88;13.18;;;;;;;;;;5073739;28;20203;-59
2023/10/20 12:46:40;;;;;;;27.40;15.35;;;;;;;;;;5072756;28;20237;-66
2023/10/20 12:49:07;;;;;;;5.45;4.78;;;;;;;;;;5070091;28;20207;-59
2023/10/20 12:51:35;;;;;;;4.72;4.00;;;;;;;;;;5074716;28;20585;-59
2023/10/20 12:54:03;;;;;;;10.30;6.50;;;;;;;;;;5077180;28;20266;-59
2023/10/20 12:56:32;;;;;;;5.93;5.38;;;;;;;;;;5080201;28;20205;-59
2023/10/20 12:58:59;;;;;;;6.05;4.38;;;;;;;;;;5080029;28;20248;-59
2023/10/20 13:01:26;;;;;;;19.50;12.57;;;;;;;;;;5075517;28;20210;-60
2023/10/20 13:03:55;;;;;;;17.75;9.82;;;;;;;;;;5077316;28;20938;-59
2023/10/20 13:06:22;;;;;;;4.80;3.72;;;;;;;;;;5077808;28;20236;-60
2023/10/20 13:08:50;;;;;;;5.45;4.30;;;;;;;;;;5080423;28;20198;-59
2023/10/20 13:11:17;;;;;;;12.60;7.60;;;;;;;;;;5079742;28;20407;-60
2023/10/20 13:13:46;;;;;;;16.88;9.65;;;;;;;;;;5072433;28;20242;-60
2023/10/20 13:16:13;;;;;;;13.23;8.02;;;;;;;;;;5076012;28;20237;-59
2023/10/20 13:18:41;;;;;;;8.93;6.53;;;;;;;;;;5079846;28;20222;-60
2023/10/20 13:21:08;;;;;;;22.10;12.48;;;;;;;;;;5080993;28;20205;-59
2023/10/20 13:23:35;;;;;;;6.15;5.18;;;;;;;;;;5080167;28;20298;-59
2023/10/20 13:26:04;;;;;;;3.75;3.00;;;;;;;;;;5071995;28;20211;-58
2023/10/20 13:28:31;;;;;;;14.20;8.27;;;;;;;;;;5085086;28;20218;-58
2023/10/20 13:31:06;;;;;;;13.90;8.73;;;;;;;;;;5081752;28;20322;-59
2023/10/20 13:33:34;;;;;;;8.98;6.32;;;;;;;;;;5079838;28;20202;-60
2023/10/20 13:36:02;;;;;;;10.85;6.60;;;;;;;;;;5081582;28;20234;-59
2023/10/20 13:38:30;;;;;;;14.30;8.63;;;;;;;;;;5076734;28;20323;-59
2023/10/20 13:40:58;;;;;;;3.92;3.63;;;;;;;;;;5077387;28;20331;-59
2023/10/20 13:43:25;;;;;;;2.63;2.45;;;;;;;;;;5072835;28;20679;-60
2023/10/20 13:45:52;;;;;;;8.68;5.47;;;;;;;;;;5080474;28;20195;-58
2023/10/20 13:48:21;;;;;;;2.97;2.88;;;;;;;;;;5081273;28;20252;-59
2023/10/20 13:50:48;;;;;;;5.55;4.05;;;;;;;;;;5080663;28;20719;-59
2023/10/20 13:53:15;;;;;;;3.25;2.70;;;;;;;;;;5083907;28;20251;-59
2023/10/20 13:55:42;;;;;;;11.20;5.32;;;;;;;;;;5080586;28;20207;-59
2023/10/20 13:58:11;;;;;;;3.53;3.28;;;;;;;;;;5066007;28;20677;-59
2023/10/20 14:00:38;;;;;;;10.43;6.47;;;;;;;;;;5084039;28;20740;-59
2023/10/20 14:03:05;;;;;;;11.20;6.22;;;;;;;;;;5085512;28;20213;-58
2023/10/20 14:05:34;;;;;;;0.82;0.82;;;;;;;;;;5087566;28;20224;-60
2023/10/20 14:08:01;;;;;;;0.63;0.63;;;;;;;;;;5079169;28;20211;-60
2023/10/20 14:10:29;;;;;;;0.50;0.50;;;;;;;;;;5078209;28;20206;-60
2023/10/20 14:12:56;;;;;;;0.60;0.60;;;;;;;;;;5082532;28;20237;-60
2023/10/20 14:15:24;;;;;;;0.40;0.40;;;;;;;;;;5083878;28;20241;-60
2023/10/20 14:17:51;;;;;;;0.50;0.50;;;;;;;;;;5084938;28;20694;-60
2023/10/20 14:20:19;;;;;;;0.90;0.90;;;;;;;;;;5078987;28;20206;-60
2023/10/20 14:22:47;;;;;;;1.00;1.00;;;;;;;;;;5083614;28;20214;-60
2023/10/20 14:25:14;;;;;;;0.60;0.60;;;;;;;;;;5082075;28;20416;-60
2023/10/20 14:27:41;;;;;;;0.85;0.50;;;;;;;;;;5088005;28;20202;-59
2023/10/20 14:30:09;;;;;;;1.95;0.68;;;;;;;;;;5088215;28;20689;-60
2023/10/20 14:32:36;;;;;;;0.50;0.50;;;;;;;;;;5086022;28;20476;-61
2023/10/20 14:35:03;;;;;;;0.57;0.57;;;;;;;;;;5079543;28;20202;-61
2023/10/20 14:37:30;;;;;;;0.30;0.30;;;;;;;;;;5084045;28;20575;-60
2023/10/20 14:39:59;;;;;;;0.22;0.22;;;;;;;;;;5086009;28;20237;-61
2023/10/20 14:42:26;;;;;;;0.30;0.30;;;;;;;;;;5086809;28;20198;-61
2023/10/20 14:44:53;;;;;;;0.30;0.30;;;;;;;;;;5075650;28;20205;-60
2023/10/20 14:47:20;;;;;;;0.20;0.20;;;;;;;;;;5076104;28;20210;-61
2023/10/20 14:49:47;;;;;;;1.15;0.50;;;;;;;;;;5068276;28;20215;-60
2023/10/20 14:52:14;;;;;;;0.30;0.30;;;;;;;;;;5076966;28;20199;-62
2023/10/20 14:54:41;;;;;;;0.40;0.40;;;;;;;;;;5072474;28;20276;-61
2023/10/20 14:57:10;;;;;;;1.25;0.50;;;;;;;;;;5067662;28;20293;-61
2023/10/20 14:59:37;;;;;;;0.20;0.20;;;;;;;;;;5083218;28;20598;-61
2023/10/20 15:02:04;;;;;;;0.10;0.10;;;;;;;;;;5085719;28;20202;-67
2023/10/20 15:04:33;;;;;;;0.20;0.20;;;;;;;;;;5082868;28;20217;-60
2023/10/20 15:07:00;;;;;;;0.20;0.20;;;;;;;;;;5082194;28;20701;-61
2023/10/20 15:09:28;;;;;;;0.15;0.15;;;;;;;;;;5085063;28;20203;-62